createdAt,value
2018-09-25T00:02:31.489Z,8.90
2018-09-25T00:05:05.361Z,8.90
2018-09-25T00:07:39.049Z,8.90
2018-09-25T00:10:12.952Z,8.90
2018-09-25T00:12:46.786Z,8.90
2018-09-25T00:15:20.584Z,8.90
2018-09-25T00:17:54.156Z,8.80
2018-09-25T00:20:27.937Z,8.80
2018-09-25T00:23:01.600Z,8.80
2018-09-25T00:25:35.474Z,8.80
2018-09-25T00:28:09.111Z,8.80
2018-09-25T00:30:42.886Z,8.80
2018-09-25T00:33:17.600Z,8.80
2018-09-25T00:35:51.474Z,8.80
2018-09-25T00:38:25.285Z,8.70
2018-09-25T00:40:59.168Z,8.70
2018-09-25T00:43:32.745Z,8.70
2018-09-25T00:46:06.550Z,8.70
2018-09-25T00:48:40.320Z,8.70
2018-09-25T00:51:14.077Z,8.70
2018-09-25T00:53:47.964Z,8.70
2018-09-25T00:56:21.732Z,8.70
2018-09-25T00:58:55.487Z,8.60
2018-09-25T01:01:34.701Z,8.60
2018-09-25T01:04:08.542Z,8.60
2018-09-25T01:06:42.464Z,8.50
2018-09-25T01:09:16.180Z,8.60
2018-09-25T01:11:49.916Z,8.50
2018-09-25T01:14:23.743Z,8.50
2018-09-25T01:16:57.565Z,8.50
2018-09-25T01:19:31.511Z,8.50
2018-09-25T01:22:07.358Z,8.50
2018-09-25T01:24:41.204Z,8.50
2018-09-25T01:27:14.964Z,8.40
2018-09-25T01:29:48.656Z,8.40
2018-09-25T01:32:22.343Z,8.40
2018-09-25T01:34:56.019Z,8.40
2018-09-25T01:37:29.895Z,8.40
2018-09-25T01:40:03.555Z,8.40
2018-09-25T01:42:44.134Z,8.40
2018-09-25T01:45:17.867Z,8.40
2018-09-25T01:47:51.567Z,8.40
2018-09-25T01:50:25.267Z,8.40
2018-09-25T01:52:59.335Z,8.40
2018-09-25T01:55:33.048Z,8.30
2018-09-25T01:58:07.023Z,8.30
2018-09-25T02:00:40.730Z,8.30
2018-09-25T02:03:17.796Z,8.30
2018-09-25T02:05:51.698Z,8.30
2018-09-25T02:08:25.416Z,8.30
2018-09-25T02:10:59.148Z,8.30
2018-09-25T02:13:32.980Z,8.30
2018-09-25T02:16:06.857Z,8.20
2018-09-25T02:18:40.474Z,8.20
2018-09-25T02:21:14.320Z,8.20
2018-09-25T02:23:48.037Z,8.20
2018-09-25T02:26:21.977Z,8.20
2018-09-25T02:28:55.816Z,8.20
2018-09-25T02:31:29.497Z,8.10
2018-09-25T02:34:03.345Z,8.10
2018-09-25T02:36:37.108Z,8.10
2018-09-25T02:39:14.349Z,8.10
2018-09-25T02:41:48.833Z,8.10
2018-09-25T02:44:22.651Z,8.10
2018-09-25T02:46:56.379Z,8.10
2018-09-25T02:49:30.247Z,8.10
2018-09-25T02:52:04.119Z,8.10
2018-09-25T02:54:38.005Z,8.00
2018-09-25T02:57:11.841Z,8.00
2018-09-25T02:59:45.662Z,8.00
2018-09-25T03:02:19.488Z,8.00
2018-09-25T03:04:53.303Z,8.00
2018-09-25T03:07:26.916Z,8.00
2018-09-25T03:10:00.866Z,8.00
2018-09-25T03:12:34.494Z,7.90
2018-09-25T03:15:08.395Z,7.90
2018-09-25T03:17:42.290Z,7.90
2018-09-25T03:20:16.209Z,7.90
2018-09-25T03:22:49.878Z,7.90
2018-09-25T03:25:23.753Z,7.90
2018-09-25T03:27:57.512Z,7.90
2018-09-25T03:30:31.166Z,7.80
2018-09-25T03:33:05.146Z,7.80
2018-09-25T03:35:38.951Z,7.80
2018-09-25T03:38:12.729Z,7.80
2018-09-25T03:40:46.754Z,7.80
2018-09-25T03:43:20.395Z,7.80
2018-09-25T03:45:54.157Z,7.80
2018-09-25T03:48:28.138Z,7.80
2018-09-25T03:51:01.969Z,7.80
2018-09-25T03:53:35.757Z,7.80
2018-09-25T03:56:09.495Z,7.80
2018-09-25T03:58:43.311Z,7.80
2018-09-25T04:01:16.934Z,7.70
2018-09-25T04:03:51.596Z,7.70
2018-09-25T04:06:25.585Z,7.70
2018-09-25T04:08:59.432Z,7.70
2018-09-25T04:11:33.212Z,7.70
2018-09-25T04:14:07.024Z,7.70
2018-09-25T04:16:40.724Z,7.70
2018-09-25T04:19:14.510Z,7.70
2018-09-25T04:21:48.416Z,7.70
2018-09-25T04:24:23.224Z,7.70
2018-09-25T04:26:57.346Z,7.60
2018-09-25T04:29:31.178Z,7.60
2018-09-25T04:32:05.124Z,7.60
2018-09-25T04:34:54.614Z,7.60
2018-09-25T04:37:28.422Z,7.60
2018-09-25T04:40:02.564Z,7.60
2018-09-25T04:42:36.884Z,7.60
2018-09-25T04:45:11.475Z,7.60
2018-09-25T04:47:45.198Z,7.60
2018-09-25T04:50:18.951Z,7.60
2018-09-25T04:52:53.042Z,7.60
2018-09-25T04:55:26.879Z,7.60
2018-09-25T04:58:00.533Z,7.60
2018-09-25T05:00:34.298Z,7.60
2018-09-25T05:03:08.093Z,7.60
2018-09-25T05:05:42.026Z,7.60
2018-09-25T05:08:16.911Z,7.60
2018-09-25T05:10:51.998Z,7.60
2018-09-25T05:16:16.155Z,7.60
2018-09-25T05:18:50.167Z,7.70
2018-09-25T05:21:23.991Z,7.70
2018-09-25T05:23:57.705Z,7.70
2018-09-25T05:26:31.575Z,7.70
2018-09-25T05:29:05.619Z,7.70
2018-09-25T05:31:39.763Z,7.70
2018-09-25T05:34:14.820Z,7.70
2018-09-25T05:36:48.952Z,7.70
2018-09-25T05:39:22.896Z,7.70
2018-09-25T05:41:57.367Z,7.80
2018-09-25T05:44:37.988Z,7.80
2018-09-25T05:47:12.192Z,7.80
2018-09-25T05:49:46.012Z,7.90
2018-09-25T05:52:19.808Z,7.90
2018-09-25T05:54:54.685Z,7.90
2018-09-25T05:57:28.793Z,8.00
2018-09-25T06:00:02.792Z,8.00
2018-09-25T06:02:37.870Z,8.00
2018-09-25T06:05:12.444Z,8.10
2018-09-25T06:07:46.740Z,8.20
2018-09-25T06:10:20.695Z,8.20
2018-09-25T06:12:55.056Z,8.30
2018-09-25T06:15:29.295Z,8.40
2018-09-25T06:18:03.313Z,8.40
2018-09-25T06:20:39.490Z,8.50
2018-09-25T06:23:13.264Z,8.60
2018-09-25T06:25:47.121Z,8.60
2018-09-25T06:28:21.024Z,8.70
2018-09-25T06:30:54.792Z,8.80
2018-09-25T06:33:28.672Z,8.90
2018-09-25T06:36:02.993Z,8.90
2018-09-25T06:38:36.900Z,8.60
2018-09-25T06:41:10.940Z,9.10
2018-09-25T06:43:44.867Z,9.10
2018-09-25T06:46:19.100Z,9.20
2018-09-25T06:48:53.672Z,9.20
2018-09-25T06:51:27.640Z,9.30
2018-09-25T06:54:01.666Z,9.40
2018-09-25T06:56:35.722Z,9.50
2018-09-25T06:59:09.783Z,9.50
2018-09-25T07:01:43.836Z,9.60
2018-09-25T07:04:17.878Z,9.70
2018-09-25T07:06:51.713Z,9.80
2018-09-25T07:09:25.699Z,9.80
2018-09-25T07:11:59.737Z,9.90
2018-09-25T07:14:33.949Z,9.90
2018-09-25T07:17:08.115Z,9.90
2018-09-25T07:19:42.158Z,10.00
2018-09-25T07:22:16.246Z,10.00
2018-09-25T07:24:50.070Z,10.10
2018-09-25T07:27:23.892Z,10.30
2018-09-25T07:29:57.751Z,10.40
2018-09-25T07:32:31.659Z,10.40
2018-09-25T07:35:05.537Z,10.60
2018-09-25T07:37:41.357Z,10.60
2018-09-25T07:40:15.283Z,10.70
2018-09-25T07:42:49.048Z,10.80
2018-09-25T07:45:22.807Z,10.80
2018-09-25T07:47:56.672Z,11.00
2018-09-25T07:50:30.426Z,11.10
2018-09-25T07:53:04.532Z,11.10
2018-09-25T07:55:38.497Z,11.20
2018-09-25T07:58:12.357Z,11.30
2018-09-25T08:00:46.365Z,11.30
2018-09-25T08:03:20.143Z,11.40
2018-09-25T08:05:53.831Z,11.40
2018-09-25T08:08:27.664Z,11.50
2018-09-25T08:11:08.147Z,11.60
2018-09-25T08:13:41.912Z,11.70
2018-09-25T08:16:15.575Z,11.80
2018-09-25T08:18:49.397Z,11.80
2018-09-25T08:21:23.267Z,11.80
2018-09-25T08:23:57.113Z,11.80
2018-09-25T08:26:31.349Z,11.80
2018-09-25T08:29:05.447Z,11.80
2018-09-25T08:31:39.533Z,11.80
2018-09-25T08:34:13.449Z,11.80
2018-09-25T08:36:47.181Z,12.00
2018-09-25T08:39:21.157Z,12.00
2018-09-25T08:41:54.867Z,12.20
2018-09-25T08:44:28.495Z,12.30
2018-09-25T08:47:02.341Z,12.50
2018-09-25T08:49:36.065Z,12.60
2018-09-25T08:52:09.898Z,12.70
2018-09-25T08:54:43.765Z,12.80
2018-09-25T08:57:17.724Z,12.90
2018-09-25T08:59:51.710Z,13.00
2018-09-25T09:02:25.722Z,13.10
2018-09-25T09:04:59.578Z,13.10
2018-09-25T09:07:39.009Z,13.10
2018-09-25T09:10:12.938Z,13.10
2018-09-25T09:12:46.888Z,13.10
2018-09-25T09:15:20.892Z,13.30
2018-09-25T09:17:54.646Z,13.30
2018-09-25T09:20:28.752Z,13.30
2018-09-25T09:23:02.547Z,13.40
2018-09-25T09:25:36.434Z,13.50
2018-09-25T09:28:10.309Z,13.50
2018-09-25T09:30:45.000Z,13.60
2018-09-25T09:33:18.958Z,13.70
2018-09-25T09:35:52.724Z,13.70
2018-09-25T09:38:26.799Z,13.80
2018-09-25T09:41:00.997Z,13.80
2018-09-25T09:43:34.936Z,13.90
2018-09-25T09:46:09.138Z,14.10
2018-09-25T09:48:44.791Z,14.30
2018-09-25T09:51:18.446Z,14.40
2018-09-25T09:53:52.489Z,14.50
2018-09-25T09:56:26.852Z,14.50
2018-09-25T09:59:00.749Z,14.50
2018-09-25T10:01:34.915Z,14.40
2018-09-25T10:04:08.899Z,14.40
2018-09-25T10:06:45.518Z,14.50
2018-09-25T10:09:19.429Z,14.60
2018-09-25T10:11:53.316Z,14.70
2018-09-25T10:14:27.153Z,14.70
2018-09-25T10:17:00.817Z,14.70
2018-09-25T10:19:34.714Z,14.70
2018-09-25T10:22:08.851Z,14.70
2018-09-25T10:24:43.768Z,14.70
2018-09-25T10:27:17.968Z,14.70
2018-09-25T10:29:51.967Z,14.90
2018-09-25T10:32:26.636Z,15.00
2018-09-25T10:35:00.844Z,14.90
2018-09-25T10:37:34.536Z,14.90
2018-09-25T10:40:08.421Z,14.80
2018-09-25T10:42:44.474Z,14.80
2018-09-25T10:45:18.281Z,14.80
2018-09-25T10:47:52.183Z,14.90
2018-09-25T10:50:26.649Z,15.00
2018-09-25T10:53:00.557Z,15.00
2018-09-25T10:55:34.465Z,15.00
2018-09-25T10:58:08.189Z,15.10
2018-09-25T11:00:41.926Z,15.10
2018-09-25T11:03:16.091Z,15.10
2018-09-25T11:05:49.767Z,15.00
2018-09-25T11:08:23.665Z,15.00
2018-09-25T11:10:57.300Z,15.00
2018-09-25T11:13:31.382Z,15.20
2018-09-25T11:16:05.216Z,15.20
2018-09-25T11:18:39.263Z,15.10
2018-09-25T11:21:13.275Z,15.00
2018-09-25T11:23:47.292Z,15.00
2018-09-25T11:26:21.338Z,15.30
2018-09-25T11:28:58.409Z,15.80
2018-09-25T11:31:32.595Z,16.40
2018-09-25T11:34:06.545Z,16.50
2018-09-25T11:36:40.481Z,16.50
2018-09-25T11:39:14.497Z,16.50
2018-09-25T11:41:48.549Z,17.20
2018-09-25T11:44:22.707Z,18.30
2018-09-25T11:46:57.179Z,19.40
2018-09-25T11:49:31.325Z,19.50
2018-09-25T11:52:05.169Z,19.30
2018-09-25T11:54:38.969Z,19.00
2018-09-25T11:57:12.979Z,18.80
2018-09-25T11:59:46.981Z,18.70
2018-09-25T12:02:21.098Z,19.00
2018-09-25T12:04:54.856Z,18.80
2018-09-25T12:07:28.883Z,18.70
2018-09-25T12:10:02.785Z,19.00
2018-09-25T12:12:36.682Z,19.10
2018-09-25T12:15:10.977Z,19.40
2018-09-25T12:17:45.112Z,19.60
2018-09-25T12:20:18.958Z,21.20
2018-09-25T12:22:59.205Z,22.80
2018-09-25T12:25:33.395Z,24.30
2018-09-25T12:28:07.451Z,25.70
2018-09-25T12:30:41.572Z,26.40
2018-09-25T12:33:15.403Z,25.90
2018-09-25T12:35:49.385Z,24.90
2018-09-25T12:38:23.365Z,24.50
2018-09-25T12:40:57.262Z,23.90
2018-09-25T12:43:31.018Z,23.30
2018-09-25T12:46:05.108Z,22.90
2018-09-25T12:48:39.304Z,22.30
2018-09-25T12:51:13.364Z,22.10
2018-09-25T12:53:47.290Z,22.70
2018-09-25T12:56:21.144Z,23.90
2018-09-25T12:58:58.518Z,25.00
2018-09-25T13:01:32.427Z,26.20
2018-09-25T13:04:06.209Z,26.90
2018-09-25T13:06:48.352Z,26.60
2018-09-25T13:09:22.100Z,25.70
2018-09-25T13:11:56.152Z,25.80
2018-09-25T13:14:30.741Z,25.80
2018-09-25T13:17:04.773Z,25.30
2018-09-25T13:19:45.860Z,25.70
2018-09-25T13:22:20.241Z,26.80
2018-09-25T13:24:54.017Z,28.10
2018-09-25T13:27:28.993Z,29.10
2018-09-25T13:30:03.047Z,29.40
2018-09-25T13:32:36.929Z,29.20
2018-09-25T13:35:11.053Z,28.20
2018-09-25T13:37:45.366Z,27.00
2018-09-25T13:40:19.217Z,25.70
2018-09-25T13:42:53.077Z,24.50
2018-09-25T13:45:27.251Z,23.40
2018-09-25T13:48:01.120Z,23.40
2018-09-25T13:50:34.927Z,24.50
2018-09-25T13:53:09.606Z,25.80
2018-09-25T13:55:44.013Z,27.00
2018-09-25T13:58:17.792Z,28.20
2018-09-25T14:00:51.806Z,28.80
2018-09-25T14:03:25.822Z,29.10
2018-09-25T14:06:00.250Z,29.10
2018-09-25T14:08:34.545Z,29.30
2018-09-25T14:11:09.650Z,29.50
2018-09-25T14:13:43.960Z,29.80
2018-09-25T14:16:19.564Z,29.80
2018-09-25T14:18:53.568Z,29.50
2018-09-25T14:21:28.351Z,28.80
2018-09-25T14:24:02.299Z,27.50
2018-09-25T14:26:38.457Z,26.00
2018-09-25T14:29:14.176Z,24.40
2018-09-25T14:31:48.093Z,23.10
2018-09-25T14:34:23.129Z,22.10
2018-09-25T14:36:56.950Z,21.40
2018-09-25T14:39:31.047Z,20.80
2018-09-25T14:42:05.047Z,20.30
2018-09-25T14:44:39.029Z,19.80
2018-09-25T14:47:15.167Z,19.40
2018-09-25T14:49:48.818Z,19.10
2018-09-25T14:52:22.810Z,19.00
2018-09-25T14:55:01.042Z,18.90
2018-09-25T14:57:34.887Z,18.70
2018-09-25T15:00:09.040Z,18.50
2018-09-25T15:02:42.808Z,18.20
2018-09-25T15:05:17.380Z,17.90
2018-09-25T15:08:00.824Z,17.70
2018-09-25T15:10:35.024Z,17.50
2018-09-25T15:13:09.037Z,17.30
2018-09-25T15:15:43.066Z,17.20
2018-09-25T15:18:19.041Z,17.00
2018-09-25T15:20:54.402Z,16.90
2018-09-25T15:23:28.411Z,16.80
2018-09-25T15:26:02.757Z,16.70
2018-09-25T15:28:37.837Z,16.60
2018-09-25T15:31:12.108Z,16.50
2018-09-25T15:33:45.789Z,16.40
2018-09-25T15:36:19.854Z,16.30
2018-09-25T15:38:53.709Z,16.30
2018-09-25T15:41:33.981Z,16.20
2018-09-25T15:44:07.768Z,16.10
2018-09-25T15:46:41.873Z,16.10
2018-09-25T15:49:15.910Z,16.10
2018-09-25T15:51:50.266Z,16.10
2018-09-25T15:54:25.157Z,16.20
2018-09-25T15:57:02.833Z,16.20
2018-09-25T15:59:36.929Z,16.10
2018-09-25T16:02:18.954Z,16.10
2018-09-25T16:04:52.948Z,16.10
2018-09-25T16:07:26.790Z,15.90
2018-09-25T16:10:00.615Z,15.90
2018-09-25T16:12:34.320Z,15.80
2018-09-25T16:15:08.188Z,15.80
2018-09-25T16:17:42.160Z,15.80
2018-09-25T16:20:16.220Z,15.70
2018-09-25T16:22:50.319Z,15.70
2018-09-25T16:25:24.810Z,15.70
2018-09-25T16:27:58.629Z,15.60
2018-09-25T16:30:32.392Z,15.60
2018-09-25T16:33:06.262Z,15.60
2018-09-25T16:35:40.175Z,15.70
2018-09-25T16:38:14.071Z,15.80
2018-09-25T16:40:48.674Z,15.80
2018-09-25T16:43:22.673Z,15.70
2018-09-25T16:46:24.135Z,15.60
2018-09-25T16:48:58.501Z,15.50
2018-09-25T16:51:32.515Z,15.40
2018-09-25T16:54:06.577Z,15.30
2018-09-25T16:56:44.993Z,15.20
2018-09-25T16:59:19.051Z,15.00
2018-09-25T17:01:53.245Z,14.90
2018-09-25T17:04:27.598Z,14.70
2018-09-25T17:07:01.468Z,14.60
2018-09-25T17:09:35.505Z,14.40
2018-09-25T17:12:10.354Z,14.30
2018-09-25T17:14:50.491Z,14.20
2018-09-25T17:17:24.422Z,14.10
2018-09-25T17:19:58.315Z,14.00
2018-09-25T17:22:32.158Z,13.90
2018-09-25T17:25:06.212Z,13.80
2018-09-25T17:27:44.638Z,13.70
2018-09-25T17:30:18.830Z,13.70
2018-09-25T17:32:52.808Z,13.60
2018-09-25T17:35:26.838Z,13.50
2018-09-25T17:38:00.630Z,13.50
2018-09-25T17:40:34.797Z,13.40
2018-09-25T17:43:08.714Z,13.30
2018-09-25T17:45:42.750Z,13.30
2018-09-25T17:48:16.648Z,13.20
2018-09-25T17:50:50.665Z,13.10
2018-09-25T17:53:24.459Z,13.00
2018-09-25T17:55:58.169Z,12.90
2018-09-25T17:58:32.023Z,12.90
2018-09-25T18:01:06.487Z,12.80
2018-09-25T18:03:40.493Z,12.70
2018-09-25T18:06:14.437Z,12.60
2018-09-25T18:08:48.233Z,12.50
2018-09-25T18:11:24.901Z,12.40
2018-09-25T18:13:58.630Z,12.40
2018-09-25T18:16:32.558Z,12.30
2018-09-25T18:19:07.551Z,12.20
2018-09-25T18:21:43.343Z,12.20
2018-09-25T18:26:56.250Z,11.90
2018-09-25T18:29:30.106Z,11.80
2018-09-25T18:32:04.178Z,11.70
2018-09-25T18:34:40.365Z,11.70
2018-09-25T18:37:14.228Z,11.60
2018-09-25T18:39:49.074Z,11.50
2018-09-25T18:42:23.203Z,11.40
2018-09-25T18:45:02.463Z,11.30
2018-09-25T18:47:38.346Z,11.20
2018-09-25T18:50:16.496Z,11.10
2018-09-25T18:52:52.225Z,11.10
2018-09-25T18:55:27.042Z,10.90
2018-09-25T18:58:08.703Z,10.90
2018-09-25T19:00:43.064Z,10.80
2018-09-25T19:03:18.550Z,10.70
2018-09-25T19:05:54.972Z,10.60
2018-09-25T19:08:29.823Z,10.60
2018-09-25T19:11:09.829Z,10.50
2018-09-25T19:13:44.146Z,10.40
2018-09-25T19:16:27.718Z,10.30
2018-09-25T19:19:03.091Z,10.20
2018-09-25T19:21:42.500Z,10.10
2018-09-25T19:24:23.037Z,10.00
2018-09-25T19:27:00.408Z,10.00
2018-09-25T19:29:34.523Z,9.90
2018-09-25T19:32:09.183Z,9.80
2018-09-25T19:34:44.485Z,9.80
2018-09-25T19:37:18.381Z,9.70
2018-09-25T19:40:03.337Z,9.60
2018-09-25T19:42:38.235Z,9.60
2018-09-25T19:45:12.337Z,9.50
2018-09-25T19:47:46.745Z,9.50
2018-09-25T19:50:20.857Z,9.40
2018-09-25T19:52:55.571Z,9.40
2018-09-25T19:55:30.359Z,9.30
2018-09-25T19:58:06.910Z,9.30
2018-09-25T20:00:42.502Z,9.30
2018-09-25T20:03:16.419Z,9.20
2018-09-25T20:05:50.564Z,9.10
2018-09-25T20:08:26.360Z,9.10
2018-09-25T20:11:00.764Z,9.10
2018-09-25T20:13:34.993Z,9.00
2018-09-25T20:16:10.091Z,9.00
2018-09-25T20:18:43.947Z,8.90
2018-09-25T20:21:17.877Z,8.90
2018-09-25T20:23:53.336Z,8.90
2018-09-25T20:26:27.513Z,8.90
2018-09-25T20:29:01.335Z,8.90
2018-09-25T20:31:35.580Z,8.80
2018-09-25T20:34:09.479Z,8.80
2018-09-25T20:36:43.553Z,8.80
2018-09-25T20:39:17.531Z,8.80
2018-09-25T20:41:51.406Z,8.80
2018-09-25T20:44:25.515Z,8.80
2018-09-25T20:46:59.217Z,8.80
2018-09-25T20:49:33.071Z,8.80
2018-09-25T20:52:07.794Z,8.70
2018-09-25T20:54:42.413Z,8.70
2018-09-25T20:57:16.658Z,8.70
2018-09-25T20:59:50.657Z,8.70
2018-09-25T21:02:24.445Z,8.60
2018-09-25T21:04:58.337Z,8.60
2018-09-25T21:07:32.461Z,8.70
2018-09-25T21:10:06.483Z,8.60
2018-09-25T21:12:41.956Z,8.60
2018-09-25T21:15:16.168Z,8.60
2018-09-25T21:17:49.826Z,8.60
2018-09-25T21:20:24.140Z,8.50
2018-09-25T21:22:57.966Z,8.50
2018-09-25T21:25:31.887Z,8.50
2018-09-25T21:28:05.874Z,8.50
2018-09-25T21:30:39.826Z,8.40
2018-09-25T21:33:21.601Z,8.40
2018-09-25T21:35:55.440Z,8.40
2018-09-25T21:38:30.880Z,8.40
2018-09-25T21:41:05.125Z,8.30
2018-09-25T21:43:39.522Z,8.30
2018-09-25T21:46:13.933Z,8.20
2018-09-25T21:48:48.786Z,8.20
2018-09-25T21:51:34.818Z,8.20
2018-09-25T21:54:09.882Z,8.20
2018-09-25T21:56:47.363Z,8.20
2018-09-25T21:59:25.639Z,8.10
2018-09-25T22:02:02.846Z,8.10
2018-09-25T22:04:37.365Z,8.10
2018-09-25T22:07:11.413Z,8.10
2018-09-25T22:09:46.051Z,8.10
2018-09-25T22:12:21.679Z,8.00
2018-09-25T22:14:55.707Z,8.00
2018-09-25T22:17:29.542Z,8.00
2018-09-25T22:20:03.303Z,8.00
2018-09-25T22:22:37.193Z,7.90
2018-09-25T22:25:11.107Z,8.00
2018-09-25T22:27:44.766Z,7.90
2018-09-25T22:30:18.432Z,7.90
2018-09-25T22:32:52.400Z,7.90
2018-09-25T22:35:25.980Z,7.90
2018-09-25T22:37:59.826Z,7.90
2018-09-25T22:40:33.525Z,7.80
2018-09-25T22:43:07.237Z,7.80
2018-09-25T22:45:40.915Z,7.80
2018-09-25T22:48:14.781Z,7.80
2018-09-25T22:50:48.761Z,7.80
2018-09-25T22:53:22.861Z,7.80
2018-09-25T22:55:56.758Z,7.70
2018-09-25T22:58:30.718Z,7.80
2018-09-25T23:01:08.232Z,7.70
2018-09-25T23:03:43.129Z,7.70
2018-09-25T23:06:16.995Z,7.70
2018-09-25T23:08:50.898Z,7.60
2018-09-25T23:11:24.641Z,7.60
2018-09-25T23:13:58.538Z,7.60
2018-09-25T23:16:33.021Z,7.60
2018-09-25T23:19:06.739Z,7.60
2018-09-25T23:21:40.733Z,7.50
2018-09-25T23:24:14.555Z,7.50
2018-09-25T23:26:48.769Z,7.50
2018-09-25T23:29:22.778Z,7.40
2018-09-25T23:31:57.095Z,7.40
2018-09-25T23:34:30.963Z,7.40
2018-09-25T23:37:05.299Z,7.40
2018-09-25T23:41:45.455Z,7.40
2018-09-25T23:44:20.458Z,7.30
2018-09-25T23:46:57.773Z,7.20
2018-09-25T23:49:31.382Z,7.10
2018-09-25T23:52:04.066Z,7.10
2018-09-25T23:54:46.256Z,7.10
2018-09-25T23:57:24.256Z,7.10
2018-09-25T23:59:58.268Z,7.00
